Time;durP1;ratioP1;P1;durP2;ratioP2;P2;SDS_P1;SDS_P2;PMS_P1;PMS_P2;Temp;Humidity;BMP_temperature;BMP_pressure;BME280_temperature;BME280_humidity;BME280_pressure;Samples;Min_cycle;Max_cycle;Signal;HPM_P1;HPM_P2
2022/05/26 00:00:09;;;;;;;27.67;22.15;;;;;;;19.76;68.79;95135.34;5118822;28;20257;-69
2022/05/26 00:02:38;;;;;;;28.10;22.58;;;;;;;19.81;68.57;95132.09;5118932;28;20198;-69
2022/05/26 00:05:06;;;;;;;28.45;22.92;;;;;;;19.81;68.41;95134.09;5117088;28;20205;-70
2022/05/26 00:07:33;;;;;;;24.20;21.70;;;;;;;19.79;68.31;95130.91;5116782;28;20584;-70
2022/05/26 00:10:00;;;;;;;25.55;21.10;;;;;;;19.79;68.39;95137.31;5116461;28;20191;-70
2022/05/26 00:12:27;;;;;;;27.13;22.00;;;;;;;19.78;68.30;95120.94;5115584;28;20256;-70
2022/05/26 00:14:54;;;;;;;25.45;22.08;;;;;;;19.74;68.17;95120.94;5115067;28;20220;-70
2022/05/26 00:17:21;;;;;;;28.67;23.13;;;;;;;19.70;68.33;95123.78;5115832;28;20198;-69
2022/05/26 00:19:50;;;;;;;25.20;21.60;;;;;;;19.68;68.44;95131.81;5116736;28;20601;-69
2022/05/26 00:22:20;;;;;;;24.63;21.48;;;;;;;19.67;68.40;95138.59;5119575;28;20210;-69
2022/05/26 00:24:47;;;;;;;27.15;22.85;;;;;;;19.66;68.33;95131.41;5116128;28;20200;-69
2022/05/26 00:27:13;;;;;;;26.95;21.83;;;;;;;19.63;68.48;95120.25;5116763;28;20180;-70
2022/05/26 00:29:40;;;;;;;29.20;23.58;;;;;;;19.60;68.51;95119.00;5117573;28;20179;-70
2022/05/26 00:32:08;;;;;;;25.67;21.65;;;;;;;19.57;68.66;95116.25;5119883;28;20188;-70
2022/05/26 00:34:35;;;;;;;28.45;22.80;;;;;;;19.57;68.70;95107.84;5116046;28;20196;-70
2022/05/26 00:37:07;;;;;;;27.42;22.40;;;;;;;19.55;69.05;95124.25;5115482;28;20176;-70
2022/05/26 00:39:34;;;;;;;24.83;21.33;;;;;;;19.53;68.88;95107.09;5118559;28;20231;-69
2022/05/26 00:42:02;;;;;;;25.08;20.75;;;;;;;19.55;68.85;95119.47;5116523;28;20203;-69
2022/05/26 00:44:29;;;;;;;26.70;22.13;;;;;;;19.51;68.87;95121.50;5114998;28;20196;-69
2022/05/26 00:46:58;;;;;;;26.85;22.30;;;;;;;19.47;69.07;95132.69;5115202;28;20204;-70
2022/05/26 00:49:27;;;;;;;26.45;22.52;;;;;;;19.48;69.22;95131.50;5116993;28;20199;-69
2022/05/26 00:51:54;;;;;;;24.08;21.23;;;;;;;19.50;68.83;95125.50;5119539;28;20180;-69
2022/05/26 00:54:24;;;;;;;24.98;20.80;;;;;;;19.45;69.06;95142.69;5120975;28;20192;-70
2022/05/26 00:56:54;;;;;;;26.02;22.20;;;;;;;19.42;69.25;95118.34;5119951;28;20616;-69
2022/05/26 00:59:25;;;;;;;28.90;21.98;;;;;;;19.42;69.34;95121.13;5118216;28;20616;-70
2022/05/26 01:01:52;;;;;;;27.63;21.75;;;;;;;19.41;69.38;95120.34;5117469;28;20184;-70
2022/05/26 01:04:21;;;;;;;24.70;21.45;;;;;;;19.40;69.45;95129.16;5116530;28;20195;-69
2022/05/26 01:06:50;;;;;;;24.60;20.80;;;;;;;19.41;69.65;95127.94;5116809;28;20199;-69
2022/05/26 01:09:18;;;;;;;24.75;21.60;;;;;;;19.42;69.53;95143.50;5114559;28;20191;-69
2022/05/26 01:11:46;;;;;;;30.17;22.17;;;;;;;19.44;69.34;95146.72;5115532;28;20211;-69
2022/05/26 01:14:15;;;;;;;26.23;22.23;;;;;;;19.41;69.18;95127.94;5116390;28;20192;-69
2022/05/26 01:16:52;;;;;;;27.08;21.13;;;;;;;19.41;69.10;95142.72;5117612;28;20176;-69
2022/05/26 01:19:39;;;;;;;25.05;20.55;;;;;;;19.40;69.35;95143.13;5119854;28;20207;-69
2022/05/26 01:22:17;;;;;;;25.52;21.40;;;;;;;19.39;69.44;95136.75;5101384;28;20200;-70
2022/05/26 01:24:58;;;;;;;26.25;22.77;;;;;;;19.38;69.57;95145.53;5120057;28;20203;-69
2022/05/26 01:27:32;;;;;;;25.70;21.50;;;;;;;19.36;69.35;95145.94;5122378;28;20259;-70
2022/05/26 01:30:25;;;;;;;24.33;20.85;;;;;;;19.39;69.50;95149.91;5122986;28;20192;-70
2022/05/26 01:33:21;;;;;;;28.38;21.35;;;;;;;19.36;69.19;95159.16;5118472;28;20199;-70
2022/05/26 01:35:58;;;;;;;25.70;21.00;;;;;;;19.28;69.39;95154.78;5118712;28;20203;-70
2022/05/26 01:38:36;;;;;;;25.88;21.70;;;;;;;19.25;69.47;95164.78;5119481;28;20199;-70
2022/05/26 01:41:11;;;;;;;25.60;21.60;;;;;;;19.24;69.24;95157.59;5118085;28;20199;-70
2022/05/26 01:43:43;;;;;;;22.52;20.02;;;;;;;19.16;69.21;95156.81;5125096;28;20234;-70
2022/05/26 01:46:14;;;;;;;25.17;21.13;;;;;;;19.14;69.28;95164.03;5125009;28;20199;-69
2022/05/26 01:48:46;;;;;;;23.13;19.35;;;;;;;19.08;69.36;95143.28;5125742;28;20180;-70
2022/05/26 01:51:17;;;;;;;24.77;21.80;;;;;;;19.06;69.45;95152.06;5125730;28;20204;-69
2022/05/26 01:53:50;;;;;;;25.65;21.05;;;;;;;19.06;69.45;95151.28;5125510;28;20191;-69
2022/05/26 01:56:22;;;;;;;23.63;20.27;;;;;;;19.01;69.70;95152.50;5125762;28;20191;-69
2022/05/26 01:58:53;;;;;;;24.02;20.50;;;;;;;18.96;69.85;95150.13;5125940;28;20199;-70
2022/05/26 02:01:23;;;;;;;27.02;21.30;;;;;;;18.91;70.33;95147.75;5124171;28;20248;-70
2022/05/26 02:03:54;;;;;;;25.95;21.92;;;;;;;18.91;70.36;95147.75;5126469;28;20208;-70
2022/05/26 02:06:24;;;;;;;26.83;22.13;;;;;;;18.91;70.56;95150.53;5123460;28;20188;-70
2022/05/26 02:08:55;;;;;;;27.85;21.67;;;;;;;18.96;70.27;95150.94;5119227;28;20180;-70
2022/05/26 02:11:23;;;;;;;26.20;21.27;;;;;;;18.98;70.23;95139.34;5120092;28;20592;-70
2022/05/26 02:13:53;;;;;;;27.38;22.23;;;;;;;18.97;70.33;95130.16;5121762;28;20216;-70
2022/05/26 02:16:24;;;;;;;26.13;21.77;;;;;;;18.98;69.87;95136.53;5123937;28;20180;-70
2022/05/26 02:18:55;;;;;;;27.35;21.23;;;;;;;18.90;69.74;95138.56;5126374;28;20234;-70
2022/05/26 02:21:28;;;;;;;25.70;21.42;;;;;;;18.82;69.90;95139.81;5124104;28;20180;-70
2022/05/26 02:24:01;;;;;;;24.75;21.63;;;;;;;18.81;70.01;95145.78;5121554;28;20249;-70
2022/05/26 02:26:28;;;;;;;26.83;21.08;;;;;;;18.75;69.92;95145.41;5119243;28;20203;-70
2022/05/26 02:31:40;;;;;;;25.38;21.92;;;;;;;18.66;70.14;95151.38;5120026;28;20199;-70
2022/05/26 02:34:09;;;;;;;25.85;21.92;;;;;;;18.67;70.15;95155.78;5117325;28;20249;-70
2022/05/26 02:36:37;;;;;;;24.35;20.85;;;;;;;18.67;70.15;95160.59;5117206;28;20549;-70
2022/05/26 02:39:05;;;;;;;24.00;21.05;;;;;;;18.64;70.18;95159.38;5117080;28;20651;-70
2022/05/26 02:41:32;;;;;;;24.25;21.60;;;;;;;18.66;70.37;95164.56;5117585;28;20658;-69
2022/05/26 02:43:59;;;;;;;25.70;20.67;;;;;;;18.66;70.60;95153.38;5117767;28;20235;-70
2022/05/26 02:46:42;;;;;;;26.17;21.88;;;;;;;18.70;70.53;95151.38;5116738;28;20196;-69
2022/05/26 02:49:20;;;;;;;25.98;21.38;;;;;;;18.71;70.67;95148.22;5119929;28;20188;-70
2022/05/26 02:51:52;;;;;;;29.30;22.27;;;;;;;18.72;70.47;95154.59;5118391;28;20200;-71
2022/05/26 02:54:26;;;;;;;27.63;22.08;;;;;;;18.73;70.32;95161.78;5121365;28;20203;-71
2022/05/26 02:57:07;;;;;;;25.75;21.27;;;;;;;18.71;70.46;95164.19;5120493;28;20206;-71
2022/05/26 02:59:39;;;;;;;27.30;21.60;;;;;;;18.75;70.42;95160.19;5117508;28;20243;-70
2022/05/26 03:02:12;;;;;;;29.90;23.33;;;;;;;18.79;70.45;95157.38;5116892;28;20200;-68
2022/05/26 03:04:43;;;;;;;26.02;22.60;;;;;;;18.76;70.68;95172.94;5116054;28;20203;-68
2022/05/26 03:07:13;;;;;;;28.13;22.98;;;;;;;18.77;70.55;95165.34;5115995;28;20199;-69
2022/05/26 03:09:41;;;;;;;29.80;23.40;;;;;;;18.76;70.54;95161.75;5116350;28;20627;-69
2022/05/26 03:12:21;;;;;;;30.27;24.30;;;;;;;18.80;70.83;95174.94;5116598;28;20517;-69
2022/05/26 03:14:48;;;;;;;28.55;23.35;;;;;;;18.79;71.01;95178.94;5115568;28;20207;-69
2022/05/26 03:17:15;;;;;;;28.92;23.92;;;;;;;18.80;70.71;95184.09;5116503;28;20187;-69
2022/05/26 03:19:43;;;;;;;26.33;22.85;;;;;;;18.80;70.04;95191.69;5116430;28;20215;-69
2022/05/26 03:22:11;;;;;;;28.17;23.58;;;;;;;18.75;70.20;95201.28;5116138;28;20206;-69
2022/05/26 03:24:38;;;;;;;27.52;22.95;;;;;;;18.69;70.68;95194.47;5115686;28;20619;-69
2022/05/26 03:27:06;;;;;;;29.63;23.25;;;;;;;18.64;70.94;95184.53;5116329;28;20206;-69
2022/05/26 03:29:33;;;;;;;29.42;23.10;;;;;;;18.63;71.06;95190.53;5116058;28;20615;-69
2022/05/26 03:32:00;;;;;;;32.58;25.55;;;;;;;18.61;70.85;95195.69;5116571;28;20603;-69
2022/05/26 03:42:40;;;;;;;28.13;24.55;;;;;;;18.55;71.63;95214.84;5115675;28;20231;-69
2022/05/26 03:45:09;;;;;;;32.13;25.27;;;;;;;18.58;71.85;95210.47;5116102;28;20188;-69
2022/05/26 03:47:35;;;;;;;30.38;25.02;;;;;;;18.56;71.96;95213.66;5115789;28;20192;-69
2022/05/26 03:50:02;;;;;;;31.88;25.73;;;;;;;18.59;71.87;95212.06;5114712;28;20204;-69
2022/05/26 03:52:31;;;;;;;31.40;25.88;;;;;;;18.62;72.13;95222.44;5114660;28;20183;-69
2022/05/26 03:54:58;;;;;;;32.67;26.98;;;;;;;18.62;71.97;95230.81;5114966;28;20219;-69
2022/05/26 03:57:25;;;;;;;36.05;27.25;;;;;;;18.66;72.26;95228.81;5115730;28;20218;-72
2022/05/26 03:59:52;;;;;;;32.53;27.45;;;;;;;18.67;72.29;95231.22;5115857;28;20215;-68
2022/05/26 04:02:19;;;;;;;34.60;28.08;;;;;;;18.65;72.35;95236.38;5116296;28;20188;-67
2022/05/26 04:04:46;;;;;;;33.45;25.95;;;;;;;18.69;72.18;95228.81;5115013;28;20217;-70
2022/05/26 04:07:13;;;;;;;34.55;26.33;;;;;;;18.73;71.93;95238.00;5116144;28;20184;-73
2022/05/26 04:09:41;;;;;;;29.45;25.77;;;;;;;18.78;71.77;95233.22;5116409;28;20241;-72
2022/05/26 04:12:10;;;;;;;30.75;25.25;;;;;;;18.80;71.91;95231.59;5114590;28;20188;-72
2022/05/26 04:14:37;;;;;;;32.60;26.30;;;;;;;18.79;72.00;95241.19;5114830;28;20206;-72
2022/05/26 04:17:05;;;;;;;37.50;27.15;;;;;;;18.75;72.16;95232.81;5115657;28;20253;-72
2022/05/26 04:19:32;;;;;;;35.95;25.70;;;;;;;18.75;72.12;95243.19;5115242;28;20225;-72
2022/05/26 04:22:19;;;;;;;33.08;27.02;;;;;;;18.73;71.92;95235.19;5115118;28;20195;-72
2022/05/26 04:24:49;;;;;;;33.22;25.58;;;;;;;18.72;72.10;95238.41;5114573;28;20290;-72
2022/05/26 04:27:17;;;;;;;32.30;25.55;;;;;;;18.71;72.41;95250.78;5115738;28;20195;-73
2022/05/26 04:29:44;;;;;;;34.05;25.75;;;;;;;18.73;72.12;95243.59;5115175;28;20622;-73
2022/05/26 04:32:12;;;;;;;31.60;25.95;;;;;;;18.73;72.32;95246.38;5114701;28;20187;-73
2022/05/26 04:34:39;;;;;;;34.28;27.30;;;;;;;18.73;72.26;95246.38;5115510;28;20195;-73
2022/05/26 04:37:06;;;;;;;33.22;26.55;;;;;;;18.75;71.98;95249.59;5115450;28;20190;-73
2022/05/26 04:39:33;;;;;;;33.10;26.80;;;;;;;18.76;72.20;95247.59;5115114;28;20206;-72
2022/05/26 04:42:03;;;;;;;35.85;27.10;;;;;;;18.80;72.22;95250.38;5114438;28;20196;-72
2022/05/26 04:44:31;;;;;;;34.08;27.05;;;;;;;18.79;72.74;95251.56;5115360;28;20196;-72
2022/05/26 04:46:58;;;;;;;35.78;27.75;;;;;;;18.80;72.80;95245.56;5114974;28;20652;-72
2022/05/26 04:49:25;;;;;;;35.25;27.33;;;;;;;18.81;72.94;95251.97;5115093;28;20184;-72
2022/05/26 04:51:52;;;;;;;35.08;27.58;;;;;;;18.82;73.27;95245.97;5115511;28;20176;-72
2022/05/26 04:54:18;;;;;;;35.50;27.98;;;;;;;18.85;73.23;95252.78;5114557;28;20199;-72
2022/05/26 04:56:45;;;;;;;33.85;27.50;;;;;;;18.89;73.09;95250.78;5115440;28;20253;-72
2022/05/26 04:59:13;;;;;;;33.35;27.27;;;;;;;18.92;73.48;95258.34;5114405;28;20191;-72
2022/05/26 05:01:41;;;;;;;33.88;28.13;;;;;;;18.94;73.50;95255.94;5115654;28;20187;-73
2022/05/26 05:04:08;;;;;;;33.40;28.45;;;;;;;18.97;72.30;95243.97;5118193;28;20206;-73
2022/05/26 05:06:35;;;;;;;38.65;29.25;;;;;;;19.02;72.40;95251.13;5119321;28;20188;-73
2022/05/26 05:09:02;;;;;;;37.65;30.77;;;;;;;19.07;72.23;95259.91;5117833;28;20199;-73
2022/05/26 05:11:30;;;;;;;38.42;30.10;;;;;;;19.10;71.71;95256.31;5118283;28;20523;-72
2022/05/26 05:13:56;;;;;;;36.05;28.25;;;;;;;19.15;72.07;95252.28;5117870;28;20204;-72
2022/05/26 05:16:27;;;;;;;32.65;28.35;;;;;;;19.19;71.32;95255.88;5119050;28;20184;-72
2022/05/26 05:18:55;;;;;;;33.53;26.80;;;;;;;19.18;71.92;95260.66;5118790;28;20191;-72
2022/05/26 05:21:25;;;;;;;34.40;27.02;;;;;;;19.21;71.27;95262.66;5118839;28;20217;-72
2022/05/26 05:23:55;;;;;;;34.58;26.55;;;;;;;19.25;71.38;95268.25;5118684;28;20195;-72
2022/05/26 05:26:23;;;;;;;33.88;28.45;;;;;;;19.31;71.60;95265.81;5117598;28;20204;-72
2022/05/26 05:28:53;;;;;;;39.00;30.45;;;;;;;19.36;71.29;95265.41;5117744;28;20198;-72
2022/05/26 05:31:22;;;;;;;38.53;30.80;;;;;;;19.41;71.48;95267.78;5117423;28;20207;-72
2022/05/26 05:33:52;;;;;;;40.53;30.70;;;;;;;19.40;71.88;95272.59;5118763;28;20184;-72
2022/05/26 05:36:20;;;;;;;36.75;29.88;;;;;;;19.41;72.33;95276.97;5117632;28;20200;-72
2022/05/26 05:38:47;;;;;;;38.55;29.15;;;;;;;19.44;72.74;95275.38;5117592;28;20202;-72
2022/05/26 05:41:14;;;;;;;37.50;29.75;;;;;;;19.44;72.80;95284.56;5117114;28;20580;-72
2022/05/26 05:43:41;;;;;;;37.28;27.13;;;;;;;19.47;72.18;95288.53;5118346;28;20238;-72
2022/05/26 05:46:11;;;;;;;28.85;22.40;;;;;;;19.47;71.70;95289.34;5117126;28;20204;-72
2022/05/26 05:48:38;;;;;;;28.45;21.33;;;;;;;19.55;71.11;95294.91;5118550;28;20207;-72
2022/05/26 05:51:06;;;;;;;26.50;21.30;;;;;;;19.61;70.64;95291.28;5117259;28;20205;-72
2022/05/26 05:53:33;;;;;;;26.58;20.58;;;;;;;19.68;70.61;95296.88;5117611;28;20198;-72
2022/05/26 05:56:00;;;;;;;24.98;19.98;;;;;;;19.73;70.38;95304.06;5117205;28;20611;-72
2022/05/26 05:58:26;;;;;;;26.08;19.95;;;;;;;19.78;70.38;95302.81;5118254;28;20187;-72
2022/05/26 06:00:54;;;;;;;23.80;19.13;;;;;;;19.83;69.92;95303.22;5117946;28;20288;-72
2022/05/26 06:03:21;;;;;;;28.77;20.35;;;;;;;19.89;69.22;95306.38;5117692;28;20192;-72
2022/05/26 06:05:48;;;;;;;28.08;19.50;;;;;;;19.95;69.83;95301.94;5117857;28;20192;-72
2022/05/26 06:08:16;;;;;;;21.33;17.23;;;;;;;20.00;69.28;95309.13;5117140;28;20187;-72
2022/05/26 06:10:43;;;;;;;26.08;19.58;;;;;;;20.06;69.58;95319.47;5116666;28;20198;-72
2022/05/26 06:13:11;;;;;;;23.27;19.02;;;;;;;20.14;70.47;95314.63;5117210;28;20183;-72
2022/05/26 06:15:40;;;;;;;25.08;19.85;;;;;;;20.18;70.54;95321.00;5116528;28;20199;-73
2022/05/26 06:18:07;;;;;;;44.67;36.92;;;;;;;20.23;70.63;95315.00;5117417;28;20252;-73
2022/05/26 06:20:34;;;;;;;80.45;72.03;;;;;;;20.28;70.64;95324.97;5116902;28;20215;-73
2022/05/26 06:23:01;;;;;;;76.28;68.07;;;;;;;20.30;70.84;95320.56;5116684;28;20244;-73
2022/05/26 06:25:29;;;;;;;65.45;57.47;;;;;;;20.34;70.55;95326.13;5116848;28;20233;-73
2022/05/26 06:30:40;;;;;;;45.88;33.65;;;;;;;20.39;70.07;95325.69;5117410;28;20196;-73
2022/05/26 06:38:37;;;;;;;39.53;28.38;;;;;;;20.47;70.40;95343.22;5116155;28;20252;-71
2022/05/26 06:43:47;;;;;;;31.38;23.45;;;;;;;20.55;69.66;95342.00;5116571;28;20329;-72
2022/05/26 06:46:14;;;;;;;28.25;20.25;;;;;;;20.60;69.33;95341.59;5116938;28;20184;-72
2022/05/26 06:48:41;;;;;;;28.38;18.88;;;;;;;20.65;68.49;95341.13;5116941;28;20176;-72
2022/05/26 06:51:08;;;;;;;26.15;18.13;;;;;;;20.68;67.55;95341.09;5116148;28;20199;-72
2022/05/26 06:53:35;;;;;;;21.63;15.95;;;;;;;20.71;66.34;95339.50;5116264;28;20199;-72
2022/05/26 06:56:02;;;;;;;18.50;14.60;;;;;;;20.72;65.24;95341.09;5116049;28;20626;-72
2022/05/26 06:58:31;;;;;;;18.88;14.20;;;;;;;20.74;65.18;95346.28;5116090;28;20199;-72
2022/05/26 07:00:58;;;;;;;19.40;15.70;;;;;;;20.77;64.61;95349.06;5115825;28;20260;-72
2022/05/26 07:03:25;;;;;;;23.20;14.98;;;;;;;20.84;64.69;95342.59;5116791;28;20187;-72
2022/05/26 07:05:53;;;;;;;16.60;12.32;;;;;;;20.86;63.40;95348.59;5116428;28;20507;-72
2022/05/26 07:08:20;;;;;;;16.80;11.25;;;;;;;20.93;60.88;95348.53;5116799;28;20215;-72
2022/05/26 07:10:50;;;;;;;13.77;10.43;;;;;;;20.97;60.89;95354.91;5115694;28;20184;-72
2022/05/26 07:13:16;;;;;;;13.65;10.10;;;;;;;21.01;59.92;95350.06;5116765;28;20188;-72
2022/05/26 07:15:45;;;;;;;12.88;10.70;;;;;;;21.05;59.39;95355.63;5116506;28;20195;-72
2022/05/26 07:18:11;;;;;;;14.00;8.27;;;;;;;21.09;57.36;95356.38;5116614;28;20218;-72
2022/05/26 07:20:39;;;;;;;15.27;8.32;;;;;;;21.13;58.04;95357.16;5116435;28;20207;-71
2022/05/26 07:23:10;;;;;;;15.10;9.20;;;;;;;21.15;58.18;95349.94;5115675;28;20188;-72
2022/05/26 07:25:40;;;;;;;13.20;9.52;;;;;;;21.22;57.21;95354.69;5115789;28;20284;-73
2022/05/26 07:28:08;;;;;;;11.05;7.07;;;;;;;21.29;55.69;95351.00;5115987;28;20611;-73
2022/05/26 07:30:35;;;;;;;10.63;7.22;;;;;;;21.37;54.04;95344.16;5115652;28;20192;-73
2022/05/26 07:33:04;;;;;;;12.80;10.63;;;;;;;21.46;54.30;95343.63;5115036;28;20195;-73
2022/05/26 07:35:30;;;;;;;11.90;7.85;;;;;;;21.56;53.94;95342.72;5116145;28;20199;-73
2022/05/26 07:43:26;;;;;;;11.88;5.60;;;;;;;21.88;51.04;95351.59;5116157;28;20623;-73
2022/05/26 07:45:53;;;;;;;8.50;5.70;;;;;;;21.96;50.79;95341.06;5115168;28;20608;-73
2022/05/26 07:48:21;;;;;;;8.15;5.22;;;;;;;22.02;50.10;95349.81;5115475;28;20196;-73
2022/05/26 07:50:48;;;;;;;6.97;5.15;;;;;;;22.12;49.28;95346.09;5115682;28;20180;-73
2022/05/26 07:53:15;;;;;;;8.07;5.25;;;;;;;22.17;48.38;95354.06;5115049;28;20203;-73
2022/05/26 07:55:42;;;;;;;6.05;4.30;;;;;;;22.23;47.13;95352.38;5115185;28;20661;-73
2022/05/26 07:58:09;;;;;;;8.77;4.63;;;;;;;22.29;47.27;95356.28;5115777;28;20188;-73
2022/05/26 08:00:36;;;;;;;6.85;4.90;;;;;;;22.34;47.45;95358.66;5115690;28;20288;-73
2022/05/26 08:03:03;;;;;;;8.82;4.80;;;;;;;22.40;47.24;95358.97;5115753;28;20188;-73
2022/05/26 08:05:31;;;;;;;7.03;4.32;;;;;;;22.44;48.00;95364.53;5114861;28;20184;-73
2022/05/26 08:07:58;;;;;;;8.23;5.13;;;;;;;22.53;47.52;95364.81;5115791;28;20190;-73
2022/05/26 08:10:25;;;;;;;6.47;5.03;;;;;;;22.58;47.40;95364.31;5114922;28;20207;-73
2022/05/26 08:12:52;;;;;;;6.07;4.78;;;;;;;22.69;47.61;95367.78;5114745;28;20600;-72
2022/05/26 08:15:19;;;;;;;7.15;5.40;;;;;;;22.79;48.56;95360.41;5114788;28;20200;-73
2022/05/26 08:17:46;;;;;;;8.30;5.40;;;;;;;22.89;47.91;95356.63;5115402;28;20604;-73
2022/05/26 08:20:13;;;;;;;10.73;5.53;;;;;;;22.95;48.07;95359.78;5115035;28;20187;-73
2022/05/26 08:22:41;;;;;;;8.23;5.30;;;;;;;23.00;47.97;95354.47;5114754;28;20209;-72
2022/05/26 08:25:09;;;;;;;8.75;5.10;;;;;;;23.10;47.42;95369.59;5114692;28;20196;-73
2022/05/26 08:27:36;;;;;;;8.13;5.05;;;;;;;23.18;48.61;95373.06;5115231;28;20199;-73
2022/05/26 08:30:05;;;;;;;7.40;5.10;;;;;;;23.18;47.82;95373.06;5114624;28;20187;-73
2022/05/26 08:32:32;;;;;;;8.15;5.85;;;;;;;23.19;47.36;95367.00;5114554;28;20203;-73
2022/05/26 08:35:00;;;;;;;8.85;6.22;;;;;;;23.23;47.52;95370.56;5115175;28;20196;-73
2022/05/26 08:37:27;;;;;;;7.28;5.60;;;;;;;23.28;47.37;95380.53;5116676;28;20603;-73
2022/05/26 08:39:55;;;;;;;7.78;5.15;;;;;;;23.34;46.72;95378.03;5119341;28;20199;-72
2022/05/26 08:42:24;;;;;;;6.78;4.93;;;;;;;23.35;46.40;95374.78;5119175;28;20207;-72
2022/05/26 08:44:54;;;;;;;7.20;5.50;;;;;;;23.33;45.54;95370.81;5119452;28;20180;-72
2022/05/26 08:47:23;;;;;;;8.40;5.32;;;;;;;23.31;45.36;95374.03;5118928;28;20284;-72
2022/05/26 08:49:53;;;;;;;6.80;4.97;;;;;;;23.31;46.79;95382.47;5119467;28;20184;-73
2022/05/26 08:52:24;;;;;;;8.60;5.47;;;;;;;23.33;47.15;95380.03;5119362;28;20184;-72
2022/05/26 08:54:59;;;;;;;6.13;5.28;;;;;;;23.38;47.37;95373.13;5118290;28;20199;-72
2022/05/26 08:57:30;;;;;;;9.60;5.40;;;;;;;23.46;47.65;95380.22;5119492;28;20203;-72
2022/05/26 08:59:57;;;;;;;9.13;5.00;;;;;;;23.63;48.01;95378.31;5118457;28;20199;-72
2022/05/26 09:02:26;;;;;;;9.27;5.80;;;;;;;23.77;48.46;95378.84;5118331;28;20218;-73
2022/05/26 09:04:55;;;;;;;8.38;5.53;;;;;;;23.87;46.57;95374.25;5118134;28;20199;-72
2022/05/26 09:12:59;;;;;;;6.63;5.10;;;;;;;24.26;45.64;95372.66;5118738;28;20176;-72
2022/05/26 09:15:26;;;;;;;9.18;5.93;;;;;;;24.36;45.29;95380.06;5118103;28;20188;-73
2022/05/26 09:17:53;;;;;;;7.60;5.40;;;;;;;24.46;45.03;95370.63;5118404;28;20217;-72
2022/05/26 09:20:36;;;;;;;7.20;5.18;;;;;;;24.53;45.50;95366.88;5118218;28;20302;-72
2022/05/26 09:23:22;;;;;;;9.75;5.50;;;;;;;24.64;43.54;95358.16;5118097;28;20227;-72
2022/05/26 09:25:52;;;;;;;5.95;4.80;;;;;;;24.70;43.39;95365.66;5118004;28;20256;-73
2022/05/26 09:28:31;;;;;;;5.72;4.55;;;;;;;24.87;42.16;95368.50;5118766;28;20220;-72
2022/05/26 09:31:17;;;;;;;6.55;4.22;;;;;;;24.97;42.18;95371.06;5118266;28;20172;-72
2022/05/26 09:33:44;;;;;;;8.02;4.30;;;;;;;25.06;41.08;95378.16;5118749;28;20267;-72
2022/05/26 09:36:28;;;;;;;9.73;5.28;;;;;;;25.09;41.37;95375.25;5117365;28;20203;-72
2022/05/26 09:38:54;;;;;;;6.85;4.15;;;;;;;25.16;41.45;95369.44;5118134;28;20630;-72
2022/05/26 09:41:23;;;;;;;4.65;4.13;;;;;;;25.29;42.33;95363.88;5118527;28;20210;-72
2022/05/26 09:43:51;;;;;;;6.72;4.65;;;;;;;25.42;42.93;95375.25;5118067;28;20248;-72
2022/05/26 09:46:19;;;;;;;9.13;4.50;;;;;;;25.43;42.25;95377.63;5118544;28;20264;-72
2022/05/26 09:48:47;;;;;;;8.18;4.20;;;;;;;25.46;40.29;95367.50;5117235;28;20191;-73
2022/05/26 09:51:16;;;;;;;8.68;4.35;;;;;;;25.60;42.18;95377.59;5118326;28;20198;-72
2022/05/26 09:53:44;;;;;;;7.82;4.47;;;;;;;25.66;41.97;95359.66;5118148;28;20626;-72
2022/05/26 09:56:13;;;;;;;5.90;4.10;;;;;;;25.76;40.07;95368.31;5118055;28;20214;-72
2022/05/26 09:58:42;;;;;;;6.45;4.07;;;;;;;25.89;41.52;95358.69;5118116;28;20622;-72
2022/05/26 10:01:31;;;;;;;12.30;4.45;;;;;;;26.01;40.21;95350.69;5116799;28;20306;-72
2022/05/26 10:04:04;;;;;;;4.70;4.00;;;;;;;26.16;37.63;95357.53;5117265;28;20195;-72
2022/05/26 10:06:33;;;;;;;12.98;4.60;;;;;;;26.17;36.02;95354.25;5117762;28;20588;-72
2022/05/26 10:09:09;;;;;;;10.23;3.80;;;;;;;26.19;35.66;95356.63;5116952;28;20633;-72
2022/05/26 10:11:49;;;;;;;8.07;3.83;;;;;;;26.31;35.81;95353.03;5117537;28;20187;-73
2022/05/26 10:14:42;;;;;;;5.32;3.92;;;;;;;26.40;34.12;95353.19;5116898;28;20210;-73
2022/05/26 10:17:13;;;;;;;5.47;3.17;;;;;;;26.48;34.28;95348.13;5116541;28;20260;-72
2022/05/26 10:20:10;;;;;;;6.60;3.90;;;;;;;26.53;33.14;95358.88;5117743;28;20190;-72
2022/05/26 10:22:42;;;;;;;4.13;3.22;;;;;;;26.50;32.86;95356.16;5117582;28;20208;-73
2022/05/26 10:25:16;;;;;;;8.38;3.45;;;;;;;26.53;33.11;95352.44;5117256;28;20192;-72
2022/05/26 10:27:52;;;;;;;8.70;3.65;;;;;;;26.56;34.14;95362.84;5116700;28;20199;-73
2022/05/26 10:30:26;;;;;;;5.88;4.50;;;;;;;26.66;34.82;95360.94;5117837;28;20175;-73
2022/05/26 10:33:09;;;;;;;8.65;5.15;;;;;;;26.74;35.16;95357.41;5116143;28;20525;-73
2022/05/26 10:35:40;;;;;;;6.47;5.03;;;;;;;26.76;34.57;95356.97;5117582;28;20215;-72
2022/05/26 10:38:17;;;;;;;7.10;4.75;;;;;;;26.79;34.83;95356.84;5116678;28;20195;-72
2022/05/26 10:40:56;;;;;;;4.55;3.50;;;;;;;26.80;32.73;95352.78;5116995;28;20187;-72
2022/05/26 10:43:26;;;;;;;7.13;3.83;;;;;;;26.70;31.87;95348.25;5117056;28;20254;-72
2022/05/26 10:45:54;;;;;;;6.68;4.43;;;;;;;26.70;34.46;95351.09;5115899;28;20195;-72
2022/05/26 10:48:33;;;;;;;7.22;4.47;;;;;;;26.74;34.33;95348.94;5116893;28;20202;-72
2022/05/26 10:51:02;;;;;;;7.50;4.78;;;;;;;26.75;35.05;95355.38;5116111;28;20187;-72
2022/05/26 10:53:34;;;;;;;5.75;4.95;;;;;;;26.61;36.46;95348.13;5117191;28;20204;-72
2022/05/26 10:56:09;;;;;;;5.78;4.28;;;;;;;26.57;36.98;95345.41;5117129;28;20192;-72
2022/05/26 10:58:39;;;;;;;5.57;4.15;;;;;;;26.47;37.43;95335.25;5116116;28;20226;-72
2022/05/26 11:01:18;;;;;;;10.27;5.30;;;;;;;26.43;39.57;95337.31;5115353;28;20229;-73
2022/05/26 11:03:47;;;;;;;7.72;4.63;;;;;;;26.39;38.21;95333.81;5116535;28;20630;-73
2022/05/26 11:06:22;;;;;;;8.52;5.97;;;;;;;26.31;39.30;95336.06;5116497;28;20202;-73
2022/05/26 11:08:53;;;;;;;7.00;5.10;;;;;;;26.22;39.24;95337.97;5116814;28;20194;-73
2022/05/26 11:11:23;;;;;;;6.43;4.50;;;;;;;26.13;39.51;95324.50;5116767;28;20190;-73
2022/05/26 11:13:54;;;;;;;5.70;5.03;;;;;;;26.04;37.78;95327.19;5115878;28;20202;-72
2022/05/26 11:19:24;;;;;;;5.00;4.18;;;;;;;26.00;37.48;95324.47;5116363;28;20306;-72
2022/05/26 11:21:51;;;;;;;11.18;4.40;;;;;;;26.11;39.22;95330.63;5116387;28;20200;-73
2022/05/26 11:24:18;;;;;;;6.97;4.50;;;;;;;26.14;39.63;95320.41;5116544;28;20180;-72
2022/05/26 11:26:49;;;;;;;8.10;5.38;;;;;;;26.13;39.22;95327.31;5115410;28;20199;-72
2022/05/26 11:29:20;;;;;;;7.63;4.60;;;;;;;26.04;37.80;95327.19;5115195;28;20610;-72
2022/05/26 11:37:28;;;;;;;5.10;4.45;;;;;;;26.50;38.94;95308.06;5114878;28;20314;-72
2022/05/26 11:39:58;;;;;;;5.45;4.07;;;;;;;26.59;37.74;95306.16;5116004;28;20192;-73
2022/05/26 11:42:31;;;;;;;6.18;5.00;;;;;;;26.64;38.08;95291.44;5115700;28;20247;-72
2022/05/26 11:45:15;;;;;;;8.00;4.95;;;;;;;26.81;38.51;95297.78;5115124;28;20191;-72
2022/05/26 11:47:55;;;;;;;5.13;4.63;;;;;;;26.97;38.13;95298.88;5116046;28;20191;-73
2022/05/26 11:50:54;;;;;;;7.30;4.70;;;;;;;27.00;38.27;95298.78;5114875;28;20639;-73
2022/05/26 11:53:40;;;;;;;6.15;4.80;;;;;;;27.03;38.41;95299.91;5115925;28;20191;-73
2022/05/26 11:56:40;;;;;;;7.05;4.70;;;;;;;27.12;37.79;95305.69;5115139;28;20230;-73
2022/05/26 11:59:22;;;;;;;5.53;4.68;;;;;;;27.20;37.79;95304.22;5111773;28;20241;-72
2022/05/26 12:01:49;;;;;;;8.00;4.70;;;;;;;27.34;38.65;95317.06;5115515;28;20214;-72
2022/05/26 12:04:26;;;;;;;5.53;4.90;;;;;;;27.32;38.91;95322.41;5115541;28;20176;-72
2022/05/26 12:06:56;;;;;;;7.40;4.82;;;;;;;27.07;38.53;95309.06;5115081;28;20199;-73
2022/05/26 12:09:31;;;;;;;6.38;4.72;;;;;;;26.83;38.96;95320.75;5115914;28;20257;-73
2022/05/26 12:12:00;;;;;;;6.00;5.45;;;;;;;26.66;39.81;95324.16;5113587;28;20631;-73
2022/05/26 12:14:31;;;;;;;5.20;4.70;;;;;;;26.52;40.16;95314.88;5114885;28;20618;-73
2022/05/26 12:17:26;;;;;;;8.52;6.00;;;;;;;26.44;41.16;95319.13;5115283;28;20180;-73
2022/05/26 12:19:54;;;;;;;6.95;5.38;;;;;;;26.33;41.19;95322.28;5115518;28;20622;-73